Time;durP1;ratioP1;P1;durP2;ratioP2;P2;SDS_P1;SDS_P2;PMS_P1;PMS_P2;Temp;Humidity;BMP_temperature;BMP_pressure;BME280_temperature;BME280_humidity;BME280_pressure;Samples;Min_cycle;Max_cycle;Signal;HPM_P1;HPM_P2
2021/12/09 00:00:35;;;;;;;52.63;39.33;;;;;;;-0.39;100.00;94712.00;5069300;28;20029;-64
2021/12/09 00:03:05;;;;;;;55.13;43.97;;;;;;;-0.71;100.00;94725.25;5048709;28;20403;-64
2021/12/09 00:05:32;;;;;;;50.78;40.00;;;;;;;-0.82;100.00;94722.50;5067505;28;20033;-64
2021/12/09 00:07:58;;;;;;;47.70;38.50;;;;;;;-0.89;100.00;94720.31;5068471;28;20033;-64
2021/12/09 00:10:23;;;;;;;57.00;41.05;;;;;;;-0.92;100.00;94720.50;5068309;28;20037;-63
2021/12/09 00:12:48;;;;;;;49.70;39.00;;;;;;;-0.91;100.00;94713.56;5066199;28;20020;-64
2021/12/09 00:15:14;;;;;;;50.55;38.38;;;;;;;-0.91;100.00;94717.00;5073209;28;20025;-63
2021/12/09 00:17:39;;;;;;;45.00;35.75;;;;;;;-0.91;100.00;94719.56;5067752;28;20060;-64
2021/12/09 00:20:06;;;;;;;45.38;39.67;;;;;;;-0.90;100.00;94716.06;5067610;28;20572;-63
2021/12/09 00:22:32;;;;;;;44.72;36.42;;;;;;;-0.88;100.00;94724.53;5068483;28;20039;-64
2021/12/09 00:24:57;;;;;;;40.90;35.53;;;;;;;-0.87;100.00;94726.22;5064022;28;20052;-64
2021/12/09 00:27:22;;;;;;;40.95;31.70;;;;;;;-0.84;100.00;94727.78;5068098;28;20082;-63
2021/12/09 00:29:48;;;;;;;33.13;26.75;;;;;;;-0.87;100.00;94726.22;5067295;28;20024;-63
2021/12/09 00:32:13;;;;;;;33.92;28.55;;;;;;;-0.81;100.00;94739.66;5063964;28;20028;-64
2021/12/09 00:34:42;;;;;;;30.23;26.90;;;;;;;-0.81;100.00;94737.91;5065164;28;20461;-63
2021/12/09 00:37:19;;;;;;;34.90;28.25;;;;;;;-0.80;100.00;94734.41;5065010;28;20083;-64
2021/12/09 00:39:49;;;;;;;31.40;27.77;;;;;;;-0.79;100.00;94740.41;5064247;28;20063;-64
2021/12/09 00:42:15;;;;;;;26.50;23.45;;;;;;;-0.80;100.00;94746.50;5067709;28;20044;-62
2021/12/09 00:44:41;;;;;;;31.30;25.40;;;;;;;-0.82;100.00;94751.78;5069491;28;20025;-61
2021/12/09 00:47:06;;;;;;;27.33;24.45;;;;;;;-0.80;100.00;94749.91;5068029;28;20028;-61
2021/12/09 00:49:32;;;;;;;24.65;21.45;;;;;;;-0.80;100.00;94743.91;5067135;28;20090;-63
2021/12/09 00:51:58;;;;;;;24.10;21.48;;;;;;;-0.77;100.00;94741.16;5067956;28;20511;-64
2021/12/09 00:54:23;;;;;;;24.65;22.05;;;;;;;-0.76;100.00;94747.97;5069856;28;20056;-63
2021/12/09 00:56:49;;;;;;;23.83;21.27;;;;;;;-0.79;100.00;94743.81;5069429;28;20056;-66
2021/12/09 00:59:14;;;;;;;24.10;20.13;;;;;;;-0.79;100.00;94748.16;5068473;28;20035;-64
2021/12/09 01:01:40;;;;;;;18.70;16.70;;;;;;;-0.77;100.00;94748.91;5060299;28;20055;-64
2021/12/09 01:04:06;;;;;;;22.70;20.42;;;;;;;-0.78;100.00;94755.81;5069340;28;20537;-63
2021/12/09 01:06:31;;;;;;;21.77;19.50;;;;;;;-0.75;100.00;94762.56;5066172;28;20032;-63
2021/12/09 01:08:57;;;;;;;21.08;18.88;;;;;;;-0.70;100.00;94755.34;5068651;28;20040;-63
2021/12/09 01:11:22;;;;;;;19.38;17.35;;;;;;;-0.72;100.00;94762.38;5067329;28;20028;-63
2021/12/09 01:13:48;;;;;;;20.15;18.15;;;;;;;-0.73;100.00;94765.88;5067900;28;20814;-63
2021/12/09 01:16:18;;;;;;;99.82;54.20;;;;;;;-0.69;100.00;94757.00;5066314;28;20032;-62
2021/12/09 01:18:44;;;;;;;18.92;16.02;;;;;;;-0.70;100.00;94755.34;5061631;28;20024;-62
2021/12/09 01:21:12;;;;;;;23.23;17.42;;;;;;;-0.70;100.00;94757.94;5067734;28;20037;-62
2021/12/09 01:23:41;;;;;;;18.77;16.15;;;;;;;-0.71;100.00;94758.84;5065755;28;20035;-62
2021/12/09 01:26:07;;;;;;;14.23;12.70;;;;;;;-0.73;100.00;94758.13;5069311;28;20052;-62
2021/12/09 01:28:43;;;;;;;11.85;10.65;;;;;;;-0.68;100.00;94769.00;5069149;28;20032;-62
2021/12/09 01:31:08;;;;;;;10.70;8.75;;;;;;;-0.65;100.00;94768.00;5068925;28;20013;-63
2021/12/09 01:33:36;;;;;;;9.20;8.27;;;;;;;-0.61;100.00;94770.25;5068839;28;20652;-62
2021/12/09 01:36:03;;;;;;;14.90;11.68;;;;;;;-0.60;100.00;94769.34;5068746;28;20025;-62
2021/12/09 01:38:29;;;;;;;16.50;10.82;;;;;;;-0.53;100.00;94779.31;5067934;28;20387;-62
2021/12/09 01:40:55;;;;;;;9.88;8.38;;;;;;;-0.50;100.00;94779.94;5069002;28;20025;-62
2021/12/09 01:43:21;;;;;;;12.05;10.70;;;;;;;-0.54;100.00;94781.06;5068871;28;20356;-62
2021/12/09 01:45:47;;;;;;;13.18;11.18;;;;;;;-0.53;100.00;94793.06;5068662;28;20020;-62
2021/12/09 01:48:13;;;;;;;9.07;7.47;;;;;;;-0.44;100.00;94778.72;5069067;28;20074;-62
2021/12/09 01:50:39;;;;;;;7.05;6.45;;;;;;;-0.42;100.00;94788.97;5069074;28;20025;-62
2021/12/09 01:53:07;;;;;;;7.20;6.47;;;;;;;-0.39;100.00;94793.97;5068922;28;20544;-62
2021/12/09 01:55:34;;;;;;;8.32;7.15;;;;;;;-0.43;100.00;94801.06;5068444;28;20025;-62
2021/12/09 01:58:00;;;;;;;10.02;9.00;;;;;;;-0.33;100.00;94803.91;5069827;28;20111;-62
2021/12/09 02:00:29;;;;;;;12.20;10.13;;;;;;;-0.39;100.00;94799.94;5068221;28;20047;-62
2021/12/09 02:02:55;;;;;;;14.23;10.48;;;;;;;-0.49;100.00;94809.22;5068560;28;20074;-62
2021/12/09 02:05:22;;;;;;;13.93;9.65;;;;;;;-0.54;100.00;94812.09;5065847;28;20527;-62
2021/12/09 02:07:48;;;;;;;10.30;9.00;;;;;;;-0.58;100.00;94814.03;5068904;28;20039;-62
2021/12/09 02:10:16;;;;;;;9.73;8.75;;;;;;;-0.59;100.00;94799.44;5068031;28;20020;-62
2021/12/09 02:12:42;;;;;;;6.90;6.20;;;;;;;-0.56;100.00;94792.41;5069016;28;20028;-62
2021/12/09 02:15:09;;;;;;;10.20;9.20;;;;;;;-0.54;100.00;94798.34;5068995;28;20552;-62
2021/12/09 02:17:35;;;;;;;10.45;9.02;;;;;;;-0.66;100.00;94803.34;5051082;28;20103;-62
2021/12/09 02:20:04;;;;;;;9.27;8.38;;;;;;;-0.68;100.00;94800.03;5069558;28;20443;-62
2021/12/09 02:22:30;;;;;;;8.77;7.43;;;;;;;-0.59;100.00;94807.19;5068596;28;20032;-62
2021/12/09 02:24:57;;;;;;;8.13;6.50;;;;;;;-0.63;100.00;94807.50;5068704;28;20049;-62
2021/12/09 02:27:24;;;;;;;5.82;5.43;;;;;;;-0.65;100.00;94810.16;5069577;28;20056;-62
2021/12/09 02:29:52;;;;;;;5.43;4.93;;;;;;;-0.63;100.00;94818.66;5068534;28;20032;-62
2021/12/09 02:32:18;;;;;;;6.68;4.93;;;;;;;-0.36;100.00;94810.09;5069403;28;20033;-62
2021/12/09 02:34:43;;;;;;;9.60;7.47;;;;;;;-0.44;100.00;94817.50;5072189;28;20028;-62
2021/12/09 02:37:11;;;;;;;11.73;8.70;;;;;;;-0.28;100.00;94812.19;5072912;28;20505;-62
2021/12/09 02:39:36;;;;;;;11.18;8.98;;;;;;;-0.51;100.00;94822.25;5064144;28;20043;-62
2021/12/09 02:42:02;;;;;;;11.82;10.13;;;;;;;-0.32;100.00;94813.31;5073051;28;20025;-62
2021/12/09 02:44:28;;;;;;;11.48;10.43;;;;;;;-0.47;100.00;94813.34;5072856;28;20376;-62
2021/12/09 02:46:56;;;;;;;13.63;12.23;;;;;;;-0.64;100.00;94821.34;5072658;28;20028;-63
2021/12/09 02:49:27;;;;;;;11.25;10.23;;;;;;;-0.73;100.00;94815.00;5072627;28;20534;-62
2021/12/09 02:51:53;;;;;;;11.57;10.57;;;;;;;-0.77;100.00;94822.09;5072585;28;20549;-63
2021/12/09 02:54:20;;;;;;;14.32;12.60;;;;;;;-0.76;100.00;94818.59;5064144;28;20403;-63
2021/12/09 02:56:48;;;;;;;51.83;26.55;;;;;;;-0.69;100.00;94813.03;5072376;28;20032;-63
2021/12/09 02:59:14;;;;;;;54.50;29.30;;;;;;;-0.72;100.00;94820.06;5072375;28;20558;-63
2021/12/09 03:01:50;;;;;;;31.98;20.48;;;;;;;-0.73;100.00;94822.75;5072422;28;20103;-62
2021/12/09 03:04:15;;;;;;;22.83;15.50;;;;;;;-0.72;100.00;94824.41;5063828;28;20542;-62
2021/12/09 03:06:42;;;;;;;22.83;16.45;;;;;;;-0.73;100.00;94826.16;5072274;28;20027;-63
2021/12/09 03:09:18;;;;;;;20.33;16.23;;;;;;;-0.72;100.00;94819.25;5072150;28;20033;-62
2021/12/09 03:11:52;;;;;;;19.85;14.43;;;;;;;-0.73;100.00;94827.91;5068794;28;20028;-62
2021/12/09 03:14:17;;;;;;;21.75;14.82;;;;;;;-0.73;100.00;94823.56;5072840;28;20048;-63
2021/12/09 03:16:43;;;;;;;16.75;13.38;;;;;;;-0.75;100.00;94827.19;5072789;28;20094;-63
2021/12/09 03:19:09;;;;;;;14.13;11.52;;;;;;;-0.74;100.00;94823.69;5072326;28;20042;-63
2021/12/09 03:21:43;;;;;;;10.18;9.20;;;;;;;-0.75;100.00;94828.00;5072888;28;20024;-63
2021/12/09 03:24:12;;;;;;;9.35;8.45;;;;;;;-0.72;100.00;94827.00;5072253;28;20480;-63
2021/12/09 03:27:01;;;;;;;9.88;8.75;;;;;;;-0.69;100.00;94837.16;5072569;28;20045;-62
2021/12/09 03:29:28;;;;;;;29.67;16.67;;;;;;;-0.68;100.00;94835.38;5071968;28;20071;-63
2021/12/09 03:31:56;;;;;;;47.28;25.45;;;;;;;-0.66;100.00;94834.38;5072459;28;20031;-63
2021/12/09 03:34:24;;;;;;;32.08;17.08;;;;;;;-0.63;100.00;94843.69;5072021;28;20070;-63
2021/12/09 03:36:50;;;;;;;20.67;14.25;;;;;;;-0.67;100.00;94848.22;5072272;28;20384;-63
2021/12/09 03:39:20;;;;;;;14.30;11.15;;;;;;;-0.70;100.00;94848.41;5072215;28;20040;-63
2021/12/09 03:41:50;;;;;;;12.75;8.93;;;;;;;-0.67;100.00;94848.22;5072156;28;20426;-63
2021/12/09 03:44:16;;;;;;;16.50;10.27;;;;;;;-0.68;100.00;94836.22;5071250;28;20029;-63
2021/12/09 03:46:42;;;;;;;10.80;8.07;;;;;;;-0.64;100.00;94850.59;5072068;28;20442;-63
2021/12/09 03:49:08;;;;;;;6.70;6.05;;;;;;;-0.69;100.00;94857.81;5072423;28;20039;-63
2021/12/09 03:51:35;;;;;;;6.18;5.57;;;;;;;-0.73;100.00;94848.59;5072052;28;20103;-63
2021/12/09 03:54:06;;;;;;;6.38;5.53;;;;;;;-0.75;100.00;94858.22;5072049;28;20033;-63
2021/12/09 03:56:32;;;;;;;11.25;7.95;;;;;;;-0.77;100.00;94858.28;5072095;28;20566;-63
2021/12/09 03:58:58;;;;;;;13.50;9.02;;;;;;;-0.77;100.00;94865.22;5053811;28;20032;-63
2021/12/09 04:01:24;;;;;;;8.00;6.38;;;;;;;-0.77;100.00;94863.47;5071877;28;20111;-63
2021/12/09 04:03:49;;;;;;;9.23;6.18;;;;;;;-0.76;100.00;94864.31;5071936;28;20036;-62
2021/12/09 04:06:16;;;;;;;7.47;6.70;;;;;;;-0.77;100.00;94870.41;5071730;28;20542;-62
2021/12/09 04:08:42;;;;;;;13.55;12.23;;;;;;;-0.79;100.00;94867.03;5071971;28;20036;-62
2021/12/09 04:11:10;;;;;;;12.85;11.55;;;;;;;-0.81;100.00;94862.00;5071897;28;20395;-62
2021/12/09 04:13:35;;;;;;;5.85;5.45;;;;;;;-0.84;100.00;94877.69;5071738;28;20029;-62
2021/12/09 04:16:01;;;;;;;4.20;3.90;;;;;;;-0.88;100.00;94877.03;5071472;28;20154;-62
2021/12/09 04:18:27;;;;;;;4.40;4.05;;;;;;;-0.91;100.00;94879.81;5071462;28;20493;-62
2021/12/09 04:20:52;;;;;;;4.25;3.95;;;;;;;-0.94;100.00;94881.72;5071412;28;20035;-62
2021/12/09 04:23:18;;;;;;;5.78;4.18;;;;;;;-0.92;100.00;94880.72;5071403;28;20033;-62
2021/12/09 04:25:43;;;;;;;4.18;3.88;;;;;;;-0.83;100.00;94879.34;5071500;28;20075;-62
2021/12/09 04:28:09;;;;;;;4.47;4.07;;;;;;;-0.83;100.00;94881.94;5071487;28;20200;-62
2021/12/09 04:30:34;;;;;;;4.53;3.95;;;;;;;-0.86;100.00;94892.47;5071293;28;20077;-62
2021/12/09 04:33:00;;;;;;;5.10;4.70;;;;;;;-0.91;100.00;94879.81;5071223;28;20029;-62
2021/12/09 04:35:25;;;;;;;4.60;4.20;;;;;;;-0.91;100.00;94890.13;5071240;28;20406;-62
2021/12/09 04:37:51;;;;;;;7.53;6.88;;;;;;;-0.93;100.00;94894.56;5071065;28;20039;-62
2021/12/09 04:40:17;;;;;;;5.40;5.00;;;;;;;-0.94;100.00;94899.81;5071118;28;20023;-62
2021/12/09 04:42:43;;;;;;;4.78;4.45;;;;;;;-0.93;100.00;94901.47;5071347;28;20052;-62
2021/12/09 04:45:10;;;;;;;4.75;4.45;;;;;;;-0.91;100.00;94904.81;5071029;28;20028;-63
2021/12/09 04:47:36;;;;;;;5.30;4.97;;;;;;;-0.91;100.00;94913.41;5070905;28;20040;-62
2021/12/09 04:50:05;;;;;;;6.63;6.00;;;;;;;-0.89;100.00;94916.72;5070831;28;20458;-62
2021/12/09 04:52:30;;;;;;;6.22;5.75;;;;;;;-0.85;100.00;94932.88;5070848;28;20503;-62
2021/12/09 04:54:56;;;;;;;4.45;4.15;;;;;;;-0.86;100.00;94920.88;5070744;28;20108;-62
2021/12/09 04:57:21;;;;;;;4.95;4.55;;;;;;;-0.87;100.00;94934.72;5070653;28;20454;-62
2021/12/09 04:59:48;;;;;;;4.43;4.00;;;;;;;-0.90;100.00;94932.31;5070836;28;20028;-62
2021/12/09 05:02:23;;;;;;;10.05;5.00;;;;;;;-0.78;100.00;94943.66;5070999;28;20098;-62
2021/12/09 05:04:49;;;;;;;11.93;9.02;;;;;;;-0.76;100.00;94937.50;5070604;28;20480;-62
2021/12/09 05:07:15;;;;;;;11.95;7.65;;;;;;;-0.71;100.00;94932.06;5070817;28;20050;-62
2021/12/09 05:09:49;;;;;;;8.68;7.30;;;;;;;-0.77;100.00;94935.84;5070456;28;20502;-62
2021/12/09 05:12:16;;;;;;;11.73;8.35;;;;;;;-0.79;100.00;94934.25;5070854;28;20081;-62
2021/12/09 05:14:44;;;;;;;12.65;8.07;;;;;;;-0.76;100.00;94947.03;5070382;28;20483;-62
2021/12/09 05:17:11;;;;;;;9.05;7.78;;;;;;;-0.83;100.00;94954.31;5070493;28;20029;-62
2021/12/09 05:19:36;;;;;;;7.07;6.35;;;;;;;-0.64;100.00;94946.28;5070229;28;20052;-62
2021/12/09 05:22:02;;;;;;;10.15;7.97;;;;;;;-0.63;100.00;94947.94;5069394;28;20059;-62
2021/12/09 05:24:28;;;;;;;7.75;6.68;;;;;;;-0.68;100.00;94955.13;5070246;28;20020;-62
2021/12/09 05:26:55;;;;;;;8.45;7.63;;;;;;;-0.73;100.00;94964.94;5070313;28;20020;-62
2021/12/09 05:29:27;;;;;;;12.05;10.85;;;;;;;-0.65;100.00;94954.94;5070082;28;20032;-62
2021/12/09 05:32:08;;;;;;;11.80;10.32;;;;;;;-0.55;100.00;94944.03;5070195;28;20107;-62
2021/12/09 05:34:41;;;;;;;12.60;10.93;;;;;;;-0.70;100.00;94951.81;5070221;28;20027;-62
2021/12/09 05:37:09;;;;;;;10.75;9.65;;;;;;;-0.65;100.00;94962.72;5070107;28;20024;-62
2021/12/09 05:39:36;;;;;;;9.65;8.40;;;;;;;-0.73;100.00;94967.50;5070240;28;20052;-62
2021/12/09 05:42:03;;;;;;;9.95;8.95;;;;;;;-0.75;100.00;94979.69;5070164;28;20036;-62
2021/12/09 05:44:29;;;;;;;7.07;6.38;;;;;;;-0.75;100.00;94971.94;5070172;28;20025;-62
2021/12/09 05:46:55;;;;;;;11.82;10.27;;;;;;;-0.52;100.00;94967.97;5069932;28;20103;-62
2021/12/09 05:49:20;;;;;;;21.92;16.38;;;;;;;-0.66;100.00;94971.38;5070105;28;20032;-62
2021/12/09 05:51:46;;;;;;;12.27;11.02;;;;;;;-0.72;100.00;94977.75;5070166;28;20029;-62
2021/12/09 05:54:12;;;;;;;12.50;10.35;;;;;;;-0.74;100.00;94974.44;5069709;28;20059;-62
2021/12/09 05:56:37;;;;;;;10.90;8.98;;;;;;;-0.63;100.00;94970.38;5068913;28;20043;-62
2021/12/09 05:59:04;;;;;;;8.10;5.20;;;;;;;-0.63;100.00;94966.03;5070013;28;20031;-62
2021/12/09 06:01:29;;;;;;;5.30;4.82;;;;;;;-0.56;100.00;94976.00;5070107;28;20032;-62
2021/12/09 06:03:55;;;;;;;3.72;3.50;;;;;;;-0.57;100.00;94982.94;5069916;28;20060;-62
2021/12/09 06:06:21;;;;;;;7.28;6.57;;;;;;;-0.51;100.00;94976.59;5069214;28;20025;-62
2021/12/09 06:08:46;;;;;;;3.75;3.55;;;;;;;-0.45;100.00;94989.94;5072833;28;20499;-62
2021/12/09 06:11:12;;;;;;;10.70;9.05;;;;;;;-0.45;100.00;94982.19;5073836;28;20024;-63
2021/12/09 06:13:39;;;;;;;8.15;7.45;;;;;;;-0.45;100.00;94986.56;5073914;28;20020;-62
2021/12/09 06:16:06;;;;;;;9.48;8.43;;;;;;;-0.48;100.00;94990.13;5073894;28;20107;-62
2021/12/09 06:18:32;;;;;;;5.88;5.38;;;;;;;-0.51;100.00;94994.69;5073778;28;20016;-62
2021/12/09 06:20:57;;;;;;;3.10;2.90;;;;;;;-0.55;100.00;94995.75;5072791;28;20556;-62
2021/12/09 06:23:23;;;;;;;3.55;3.35;;;;;;;-0.47;100.00;94993.56;5074030;28;20036;-62
2021/12/09 06:25:50;;;;;;;5.80;4.28;;;;;;;-0.34;100.00;94998.84;5073684;28;20048;-62
2021/12/09 06:28:16;;;;;;;4.20;3.90;;;;;;;-0.32;100.00;94997.00;5073455;28;20107;-62
2021/12/09 06:30:42;;;;;;;11.65;7.68;;;;;;;-0.36;100.00;94995.50;5072149;28;20033;-63
2021/12/09 06:33:07;;;;;;;10.05;7.38;;;;;;;-0.38;100.00;95003.34;5073482;28;20031;-62
2021/12/09 06:35:33;;;;;;;8.35;7.20;;;;;;;-0.46;100.00;95006.41;5073394;28;20024;-62
2021/12/09 06:38:00;;;;;;;7.13;6.43;;;;;;;-0.45;100.00;95009.81;5073387;28;20017;-62
2021/12/09 06:40:26;;;;;;;7.57;6.85;;;;;;;-0.46;100.00;95008.16;5073236;28;20056;-63
2021/12/09 06:42:52;;;;;;;7.70;6.13;;;;;;;-0.49;100.00;95009.16;5054612;28;20024;-62
2021/12/09 06:45:21;;;;;;;8.30;6.40;;;;;;;-0.51;100.00;95010.19;5073173;28;20021;-62
2021/12/09 06:47:47;;;;;;;5.85;5.35;;;;;;;-0.53;100.00;95007.69;5070782;28;20036;-63
2021/12/09 06:50:15;;;;;;;7.40;6.68;;;;;;;-0.54;100.00;95008.63;5072835;28;20111;-63
2021/12/09 06:52:41;;;;;;;7.30;6.60;;;;;;;-0.53;100.00;95014.63;5073182;28;20033;-62
2021/12/09 06:55:09;;;;;;;7.78;7.13;;;;;;;-0.55;100.00;95019.88;5073250;28;20499;-62
2021/12/09 06:57:35;;;;;;;7.90;6.45;;;;;;;-0.57;100.00;95019.16;5073041;28;20552;-63
2021/12/09 07:00:01;;;;;;;6.32;5.72;;;;;;;-0.58;100.00;95020.88;5073144;28;20063;-62
2021/12/09 07:02:26;;;;;;;5.70;5.30;;;;;;;-0.53;100.00;95030.16;5072311;28;20491;-62
2021/12/09 07:04:52;;;;;;;5.55;5.05;;;;;;;-0.55;100.00;95021.63;5072936;28;20040;-63
2021/12/09 07:07:17;;;;;;;16.60;14.93;;;;;;;-0.52;100.00;95026.63;5072830;28;20392;-63
2021/12/09 07:09:43;;;;;;;13.05;11.68;;;;;;;-0.51;100.00;95039.47;5072782;28;20025;-62
2021/12/09 07:12:08;;;;;;;9.35;8.40;;;;;;;-0.57;100.00;95034.66;5071290;28;20487;-63
2021/12/09 07:14:34;;;;;;;8.75;7.95;;;;;;;-0.59;100.00;95034.75;5072113;28;20048;-62
2021/12/09 07:17:00;;;;;;;10.63;9.10;;;;;;;-0.45;100.00;95043.44;5072723;28;20032;-63
2021/12/09 07:19:25;;;;;;;12.52;8.45;;;;;;;-0.49;100.00;95044.56;5072945;28;20020;-63
2021/12/09 07:21:50;;;;;;;9.88;7.90;;;;;;;-0.53;100.00;95056.00;5070716;28;20103;-63
2021/12/09 07:24:16;;;;;;;7.28;6.57;;;;;;;-0.53;100.00;95061.19;5070348;28;20595;-63
2021/12/09 07:26:41;;;;;;;22.27;8.13;;;;;;;-0.55;100.00;95065.59;5065702;28;20561;-63
2021/12/09 07:29:07;;;;;;;13.70;8.75;;;;;;;-0.57;100.00;95065.69;5072041;28;20202;-63
2021/12/09 07:31:33;;;;;;;11.70;10.15;;;;;;;-0.22;100.00;95073.16;5069248;28;20031;-62
2021/12/09 07:34:00;;;;;;;18.48;11.60;;;;;;;-0.43;100.00;95082.97;5072540;28;20033;-67
2021/12/09 07:36:26;;;;;;;15.60;12.45;;;;;;;-0.40;100.00;95093.16;5073917;28;20086;-73
2021/12/09 07:38:52;;;;;;;19.23;13.40;;;;;;;-0.35;100.00;95096.28;5070864;28;20028;-67
2021/12/09 07:41:17;;;;;;;17.00;14.27;;;;;;;-0.46;100.00;95098.69;5071559;28;20032;-68
2021/12/09 07:43:43;;;;;;;18.00;13.52;;;;;;;-0.53;100.00;95099.97;5071473;28;20031;-69
2021/12/09 07:46:09;;;;;;;4.97;4.40;;;;;;;-0.07;100.00;95088.66;5069895;28;20066;-69
2021/12/09 07:48:34;;;;;;;15.27;11.27;;;;;;;0.14;100.00;95095.13;5069397;28;20054;-67
2021/12/09 07:51:00;;;;;;;7.22;6.13;;;;;;;0.03;100.00;95091.53;5066723;28;20406;-66
2021/12/09 07:53:25;;;;;;;10.73;6.43;;;;;;;-0.09;100.00;95103.44;5066481;28;20036;-66
2021/12/09 07:55:52;;;;;;;6.28;5.65;;;;;;;-0.08;100.00;95103.38;5052083;28;20032;-64
2021/12/09 07:58:18;;;;;;;10.52;8.20;;;;;;;-0.16;100.00;95105.56;5070211;28;20028;-65
2021/12/09 08:00:44;;;;;;;9.32;8.35;;;;;;;-0.07;100.00;95107.63;5071236;28;20545;-64
2021/12/09 08:03:09;;;;;;;8.02;7.25;;;;;;;-0.17;100.00;95109.06;5071871;28;20031;-65
2021/12/09 08:05:38;;;;;;;6.95;6.35;;;;;;;-0.24;100.00;95112.94;5072133;28;20017;-65
2021/12/09 08:08:05;;;;;;;30.10;17.45;;;;;;;-0.28;100.00;95107.13;5072787;28;20043;-63
2021/12/09 08:10:31;;;;;;;22.33;12.82;;;;;;;-0.19;100.00;95116.94;5072194;28;20047;-66
2021/12/09 08:12:58;;;;;;;21.40;12.43;;;;;;;-0.20;100.00;95117.88;5070373;28;20036;-66
2021/12/09 08:15:26;;;;;;;9.45;8.45;;;;;;;-0.21;100.00;95121.38;5068415;28;20043;-66
2021/12/09 08:18:01;;;;;;;13.43;9.30;;;;;;;-0.23;100.00;95125.78;5069755;28;20066;-68
2021/12/09 08:20:29;;;;;;;13.32;8.05;;;;;;;-0.25;100.00;95126.81;5066116;28;20028;-65
2021/12/09 08:22:55;;;;;;;15.45;12.10;;;;;;;-0.27;100.00;95124.31;5071003;28;20040;-66
2021/12/09 08:25:22;;;;;;;23.33;15.13;;;;;;;-0.24;100.00;95136.25;5063378;28;20392;-63
2021/12/09 08:27:47;;;;;;;16.17;13.27;;;;;;;-0.21;100.00;95138.66;5066582;28;20028;-66
2021/12/09 08:30:16;;;;;;;20.70;14.35;;;;;;;-0.15;100.00;95138.28;5070244;28;20021;-65
2021/12/09 08:32:42;;;;;;;17.10;13.80;;;;;;;-0.17;100.00;95137.53;5070173;28;20032;-66
2021/12/09 08:35:08;;;;;;;12.52;11.15;;;;;;;-0.17;100.00;95142.72;5068862;28;20039;-66
2021/12/09 08:37:33;;;;;;;10.02;9.00;;;;;;;-0.13;100.00;95149.38;5067783;28;20036;-66
2021/12/09 08:39:59;;;;;;;10.27;9.02;;;;;;;-0.11;100.00;95151.88;5070228;28;20032;-65
2021/12/09 08:42:27;;;;;;;8.35;7.57;;;;;;;-0.09;100.00;95148.28;5068768;28;20035;-64
2021/12/09 08:44:54;;;;;;;14.55;10.98;;;;;;;0.02;100.00;95152.84;5069865;28;20033;-62
2021/12/09 08:47:19;;;;;;;12.27;11.10;;;;;;;0.01;100.00;95165.84;5085438;28;20450;-66
2021/12/09 08:49:45;;;;;;;9.40;8.27;;;;;;;-0.01;100.00;95158.16;5069951;28;20033;-66
2021/12/09 08:52:11;;;;;;;8.40;7.60;;;;;;;0.02;100.00;95159.75;5068338;28;20067;-66
2021/12/09 08:54:37;;;;;;;9.15;8.25;;;;;;;0.03;100.00;95166.59;5069757;28;20458;-63
2021/12/09 08:57:04;;;;;;;10.00;9.07;;;;;;;0.03;100.00;95164.00;5068146;28;20116;-62
2021/12/09 08:59:30;;;;;;;7.68;6.97;;;;;;;0.03;100.00;95162.25;5069285;28;20028;-65
2021/12/09 09:01:55;;;;;;;6.50;5.90;;;;;;;0.00;100.00;95167.63;5065353;28;20028;-65
2021/12/09 09:04:21;;;;;;;6.60;5.28;;;;;;;0.06;100.00;95172.44;5060653;28;20082;-66
2021/12/09 09:06:55;;;;;;;9.73;7.22;;;;;;;0.08;100.00;95168.00;5061923;28;20563;-67
2021/12/09 09:09:21;;;;;;;13.00;11.52;;;;;;;0.13;100.00;95172.91;5055677;28;20071;-63
2021/12/09 09:11:46;;;;;;;15.57;12.50;;;;;;;0.23;100.00;95166.25;5064740;28;20032;-64
2021/12/09 09:14:12;;;;;;;11.55;10.27;;;;;;;0.30;100.00;95168.47;5069839;28;20525;-61
2021/12/09 09:16:38;;;;;;;12.70;10.55;;;;;;;0.32;100.00;95176.97;5069521;28;20549;-65
2021/12/09 09:19:04;;;;;;;14.90;11.20;;;;;;;0.32;100.00;95172.63;5069643;28;20036;-66
2021/12/09 09:21:31;;;;;;;20.98;14.68;;;;;;;0.28;100.00;95176.34;5051145;28;20783;-71
2021/12/09 09:23:57;;;;;;;16.95;12.88;;;;;;;0.25;100.00;95179.94;5067469;28;20445;-66
2021/12/09 09:26:23;;;;;;;16.65;12.05;;;;;;;0.24;100.00;95173.09;5066173;28;20041;-63
2021/12/09 09:28:48;;;;;;;17.52;13.55;;;;;;;0.27;100.00;95175.50;5059536;28;20027;-65
2021/12/09 09:31:14;;;;;;;25.52;19.38;;;;;;;0.32;100.00;95179.56;5064678;28;20046;-68
2021/12/09 09:33:40;;;;;;;26.63;22.75;;;;;;;0.40;100.00;95180.75;5062151;28;20021;-67
2021/12/09 09:36:05;;;;;;;22.65;18.08;;;;;;;0.40;100.00;95174.75;5058296;28;20063;-67
2021/12/09 09:38:32;;;;;;;21.20;18.98;;;;;;;0.44;100.00;95173.66;5065702;28;20543;-67
2021/12/09 09:41:08;;;;;;;24.00;16.08;;;;;;;0.46;100.00;95178.75;5056116;28;20032;-68
2021/12/09 09:46:07;;;;;;;18.83;15.73;;;;;;;0.49;100.00;95173.38;5065940;28;20032;-67
2021/12/09 09:48:34;;;;;;;18.58;15.02;;;;;;;0.51;100.00;95180.13;5067855;28;20036;-67
2021/12/09 09:50:59;;;;;;;16.15;10.95;;;;;;;0.55;100.00;95178.19;5065988;28;20694;-68
2021/12/09 09:53:25;;;;;;;8.38;7.38;;;;;;;0.62;100.00;95181.25;5066027;28;20036;-68
2021/12/09 09:55:51;;;;;;;9.05;7.20;;;;;;;0.75;100.00;95176.13;5066437;28;20082;-66
2021/12/09 09:58:17;;;;;;;10.15;8.20;;;;;;;0.86;100.00;95178.88;5068476;28;20024;-66
2021/12/09 10:00:43;;;;;;;8.30;6.13;;;;;;;0.93;100.00;95174.16;5065352;28;20051;-66
2021/12/09 10:03:16;;;;;;;7.63;6.22;;;;;;;0.98;100.00;95179.88;5067282;28;20111;-65
2021/12/09 10:05:44;;;;;;;12.25;11.02;;;;;;;1.06;100.00;95182.00;5067384;28;20036;-65
2021/12/09 10:08:13;;;;;;;14.10;12.63;;;;;;;1.07;100.00;95187.09;5084484;28;20035;-66
2021/12/09 10:10:39;;;;;;;19.75;14.20;;;;;;;1.16;100.00;95187.44;5067310;28;20025;-65
2021/12/09 10:13:07;;;;;;;18.67;14.30;;;;;;;1.13;100.00;95189.28;5066159;28;20032;-66
2021/12/09 10:15:33;;;;;;;19.98;13.68;;;;;;;1.17;100.00;95179.56;5069321;28;20044;-66
2021/12/09 10:17:58;;;;;;;17.65;13.70;;;;;;;1.20;100.00;95179.38;5083349;28;20055;-66
2021/12/09 10:20:43;;;;;;;16.10;12.00;;;;;;;1.18;100.00;95172.59;5067817;28;20024;-66
2021/12/09 10:23:28;;;;;;;13.70;11.30;;;;;;;1.13;100.00;95170.31;5068702;28;20024;-66
2021/12/09 10:26:17;;;;;;;16.30;12.05;;;;;;;1.13;100.00;95172.91;5066358;28;20128;-65
2021/12/09 10:28:50;;;;;;;21.77;15.55;;;;;;;1.08;100.00;95180.97;5066640;28;20043;-66
2021/12/09 10:31:29;;;;;;;40.67;31.73;;;;;;;1.02;100.00;95176.19;5064755;28;20060;-66
2021/12/09 10:34:27;;;;;;;28.85;21.70;;;;;;;0.99;100.00;95168.56;5064869;28;20030;-65
2021/12/09 10:36:54;;;;;;;17.67;15.82;;;;;;;1.02;100.00;95173.59;5066039;28;20127;-66
2021/12/09 10:39:19;;;;;;;22.27;17.50;;;;;;;1.08;100.00;95174.94;5067237;28;20569;-65
2021/12/09 10:41:46;;;;;;;21.85;16.23;;;;;;;1.12;100.00;95174.66;5067197;28;20111;-65
2021/12/09 10:44:12;;;;;;;22.42;17.98;;;;;;;1.14;100.00;95167.63;5048648;28;20035;-65
2021/12/09 10:47:04;;;;;;;25.20;20.90;;;;;;;1.16;100.00;95164.09;5065549;28;20509;-64
2021/12/09 10:49:34;;;;;;;19.83;17.17;;;;;;;1.17;100.00;95164.00;5064759;28;20032;-64
2021/12/09 10:52:37;;;;;;;17.60;13.80;;;;;;;1.19;100.00;95161.31;5063999;28;20426;-64
2021/12/09 10:55:14;;;;;;;19.80;16.23;;;;;;;1.26;100.00;95160.81;5072985;28;20024;-64
2021/12/09 10:57:39;;;;;;;17.90;16.05;;;;;;;1.33;100.00;95161.25;5068474;28;20439;-65
2021/12/09 11:00:22;;;;;;;21.60;15.88;;;;;;;1.46;100.00;95157.91;5071082;28;20456;-62
2021/12/09 11:03:13;;;;;;;21.08;17.55;;;;;;;1.65;100.00;95157.53;5069527;28;20028;-66
2021/12/09 11:05:48;;;;;;;17.88;15.30;;;;;;;1.67;100.00;95155.66;5071948;28;20021;-70
2021/12/09 11:08:22;;;;;;;24.52;21.20;;;;;;;1.68;100.00;95145.19;5071813;28;20033;-69
2021/12/09 11:10:56;;;;;;;19.52;17.52;;;;;;;1.67;100.00;95143.53;5072055;28;20104;-68
2021/12/09 11:13:22;;;;;;;15.30;11.80;;;;;;;1.71;100.00;95142.38;5072563;28;20060;-69
2021/12/09 11:15:56;;;;;;;14.05;11.48;;;;;;;1.79;100.00;95136.69;5072481;28;20063;-69
2021/12/09 11:18:44;;;;;;;13.47;12.00;;;;;;;1.81;100.00;95141.75;5071608;28;20044;-69
2021/12/09 11:21:10;;;;;;;10.10;9.15;;;;;;;1.85;100.00;95151.84;5055342;28;20115;-69